sensor_id;sensor_type;location;lat;lon;timestamp;temperature;humidity
21216;DHT22;10765;50.954;5.322;2022-08-21T00:01:53;14.60;1.00
21216;DHT22;10765;50.954;5.322;2022-08-21T00:04:21;14.40;1.00
21216;DHT22;10765;50.954;5.322;2022-08-21T00:06:48;14.30;1.00
21216;DHT22;10765;50.954;5.322;2022-08-21T00:09:15;14.30;1.00
21216;DHT22;10765;50.954;5.322;2022-08-21T00:11:43;14.20;1.00
21216;DHT22;10765;50.954;5.322;2022-08-21T00:14:11;14.30;1.00
21216;DHT22;10765;50.954;5.322;2022-08-21T00:16:38;14.20;1.00
21216;DHT22;10765;50.954;5.322;2022-08-21T00:19:06;14.20;1.00
21216;DHT22;10765;50.954;5.322;2022-08-21T00:21:34;14.20;1.00
21216;DHT22;10765;50.954;5.322;2022-08-21T00:24:01;14.20;1.00
21216;DHT22;10765;50.954;5.322;2022-08-21T00:26:28;14.20;1.00
21216;DHT22;10765;50.954;5.322;2022-08-21T00:28:55;14.10;99.90
21216;DHT22;10765;50.954;5.322;2022-08-21T00:31:23;14.00;1.00
21216;DHT22;10765;50.954;5.322;2022-08-21T00:33:50;14.00;1.00
21216;DHT22;10765;50.954;5.322;2022-08-21T00:36:17;14.00;64.60
21216;DHT22;10765;50.954;5.322;2022-08-21T00:38:44;14.00;1.00
21216;DHT22;10765;50.954;5.322;2022-08-21T00:41:11;14.00;1.00
21216;DHT22;10765;50.954;5.322;2022-08-21T00:43:40;14.10;13.80
21216;DHT22;10765;50.954;5.322;2022-08-21T00:46:07;14.00;1.00
21216;DHT22;10765;50.954;5.322;2022-08-21T00:48:35;14.00;1.00
21216;DHT22;10765;50.954;5.322;2022-08-21T00:51:06;14.00;99.90
21216;DHT22;10765;50.954;5.322;2022-08-21T00:53:35;13.90;1.00
21216;DHT22;10765;50.954;5.322;2022-08-21T00:56:05;13.90;1.00
21216;DHT22;10765;50.954;5.322;2022-08-21T00:58:34;13.90;99.90
21216;DHT22;10765;50.954;5.322;2022-08-21T01:01:04;13.90;1.00
21216;DHT22;10765;50.954;5.322;2022-08-21T01:03:31;13.90;1.00
21216;DHT22;10765;50.954;5.322;2022-08-21T01:06:00;13.80;11.70
21216;DHT22;10765;50.954;5.322;2022-08-21T01:08:28;13.80;99.90
21216;DHT22;10765;50.954;5.322;2022-08-21T01:10:56;13.70;1.00
21216;DHT22;10765;50.954;5.322;2022-08-21T01:13:26;13.70;99.90
21216;DHT22;10765;50.954;5.322;2022-08-21T01:15:55;13.70;1.00
21216;DHT22;10765;50.954;5.322;2022-08-21T01:18:23;13.70;1.00
21216;DHT22;10765;50.954;5.322;2022-08-21T01:21:08;13.70;99.90
21216;DHT22;10765;50.954;5.322;2022-08-21T01:23:37;13.60;1.00
21216;DHT22;10765;50.954;5.322;2022-08-21T01:26:05;13.70;99.90
21216;DHT22;10765;50.954;5.322;2022-08-21T01:28:37;13.70;99.90
21216;DHT22;10765;50.954;5.322;2022-08-21T01:31:06;13.60;90.10
21216;DHT22;10765;50.954;5.322;2022-08-21T01:33:34;13.60;99.90
21216;DHT22;10765;50.954;5.322;2022-08-21T01:36:01;13.50;1.00
21216;DHT22;10765;50.954;5.322;2022-08-21T01:38:30;13.50;99.90
21216;DHT22;10765;50.954;5.322;2022-08-21T01:40:57;13.50;99.90
21216;DHT22;10765;50.954;5.322;2022-08-21T01:43:25;13.50;99.90
21216;DHT22;10765;50.954;5.322;2022-08-21T01:45:51;13.40;99.90
21216;DHT22;10765;50.954;5.322;2022-08-21T01:48:18;13.40;1.00
21216;DHT22;10765;50.954;5.322;2022-08-21T01:50:45;13.40;1.00
21216;DHT22;10765;50.954;5.322;2022-08-21T01:53:12;13.40;1.00
21216;DHT22;10765;50.954;5.322;2022-08-21T01:55:42;13.50;99.90
21216;DHT22;10765;50.954;5.322;2022-08-21T01:58:09;13.40;1.00
21216;DHT22;10765;50.954;5.322;2022-08-21T02:00:36;13.50;1.00
21216;DHT22;10765;50.954;5.322;2022-08-21T02:03:03;13.40;1.00
21216;DHT22;10765;50.954;5.322;2022-08-21T02:05:30;13.40;99.90
21216;DHT22;10765;50.954;5.322;2022-08-21T02:07:57;13.50;99.90
21216;DHT22;10765;50.954;5.322;2022-08-21T02:10:28;13.40;1.00
21216;DHT22;10765;50.954;5.322;2022-08-21T02:12:57;13.40;1.00
21216;DHT22;10765;50.954;5.322;2022-08-21T02:15:24;13.40;52.30
21216;DHT22;10765;50.954;5.322;2022-08-21T02:17:53;13.30;99.90
21216;DHT22;10765;50.954;5.322;2022-08-21T02:20:23;13.30;94.40
21216;DHT22;10765;50.954;5.322;2022-08-21T02:22:50;13.20;1.00
21216;DHT22;10765;50.954;5.322;2022-08-21T02:25:18;13.20;1.00
21216;DHT22;10765;50.954;5.322;2022-08-21T02:27:46;13.20;99.90
21216;DHT22;10765;50.954;5.322;2022-08-21T02:30:18;13.10;1.00
21216;DHT22;10765;50.954;5.322;2022-08-21T02:32:45;13.10;99.90
21216;DHT22;10765;50.954;5.322;2022-08-21T02:35:12;13.00;99.90
21216;DHT22;10765;50.954;5.322;2022-08-21T02:37:44;13.00;99.90
21216;DHT22;10765;50.954;5.322;2022-08-21T02:40:13;13.00;99.90
21216;DHT22;10765;50.954;5.322;2022-08-21T02:42:40;13.00;1.00
21216;DHT22;10765;50.954;5.322;2022-08-21T02:45:08;13.00;1.00
21216;DHT22;10765;50.954;5.322;2022-08-21T02:47:36;13.00;1.00
21216;DHT22;10765;50.954;5.322;2022-08-21T02:50:05;13.10;1.00
21216;DHT22;10765;50.954;5.322;2022-08-21T02:52:33;13.00;1.00
21216;DHT22;10765;50.954;5.322;2022-08-21T02:55:00;13.00;99.90
21216;DHT22;10765;50.954;5.322;2022-08-21T02:57:27;12.90;99.90
21216;DHT22;10765;50.954;5.322;2022-08-21T02:59:54;12.90;1.00
21216;DHT22;10765;50.954;5.322;2022-08-21T03:02:21;12.80;99.90
21216;DHT22;10765;50.954;5.322;2022-08-21T03:04:49;12.90;1.00
21216;DHT22;10765;50.954;5.322;2022-08-21T03:07:16;12.80;99.90
21216;DHT22;10765;50.954;5.322;2022-08-21T03:09:43;12.90;99.90
21216;DHT22;10765;50.954;5.322;2022-08-21T03:12:09;12.90;51.60
21216;DHT22;10765;50.954;5.322;2022-08-21T03:14:36;12.90;55.60
21216;DHT22;10765;50.954;5.322;2022-08-21T03:17:04;12.90;99.90
21216;DHT22;10765;50.954;5.322;2022-08-21T03:19:31;12.80;23.00
21216;DHT22;10765;50.954;5.322;2022-08-21T03:21:59;12.80;99.90
21216;DHT22;10765;50.954;5.322;2022-08-21T03:24:26;12.80;1.00
21216;DHT22;10765;50.954;5.322;2022-08-21T03:26:53;12.80;1.00
21216;DHT22;10765;50.954;5.322;2022-08-21T03:29:19;12.80;1.00
21216;DHT22;10765;50.954;5.322;2022-08-21T03:31:46;12.80;99.90
21216;DHT22;10765;50.954;5.322;2022-08-21T03:34:13;12.70;1.00
21216;DHT22;10765;50.954;5.322;2022-08-21T03:36:40;12.70;1.00
21216;DHT22;10765;50.954;5.322;2022-08-21T03:39:09;12.70;99.90
21216;DHT22;10765;50.954;5.322;2022-08-21T03:41:36;12.70;1.00
21216;DHT22;10765;50.954;5.322;2022-08-21T03:44:03;12.70;99.90
21216;DHT22;10765;50.954;5.322;2022-08-21T03:46:30;12.60;99.90
21216;DHT22;10765;50.954;5.322;2022-08-21T03:48:57;12.60;99.90
21216;DHT22;10765;50.954;5.322;2022-08-21T03:51:24;12.60;99.90
21216;DHT22;10765;50.954;5.322;2022-08-21T03:53:51;12.60;1.00
21216;DHT22;10765;50.954;5.322;2022-08-21T03:56:19;12.50;1.00
21216;DHT22;10765;50.954;5.322;2022-08-21T03:58:46;12.50;99.90
21216;DHT22;10765;50.954;5.322;2022-08-21T04:01:13;12.50;1.00
21216;DHT22;10765;50.954;5.322;2022-08-21T04:03:40;12.40;99.90
21216;DHT22;10765;50.954;5.322;2022-08-21T04:06:07;12.40;50.80
21216;DHT22;10765;50.954;5.322;2022-08-21T04:08:34;12.40;1.00
21216;DHT22;10765;50.954;5.322;2022-08-21T04:11:01;12.30;19.20
21216;DHT22;10765;50.954;5.322;2022-08-21T04:13:30;12.40;1.00
21216;DHT22;10765;50.954;5.322;2022-08-21T04:15:57;12.30;1.00
21216;DHT22;10765;50.954;5.322;2022-08-21T04:18:24;12.30;1.00
21216;DHT22;10765;50.954;5.322;2022-08-21T04:20:52;12.30;1.00
21216;DHT22;10765;50.954;5.322;2022-08-21T04:23:21;12.30;1.00
21216;DHT22;10765;50.954;5.322;2022-08-21T04:25:48;12.30;1.00
21216;DHT22;10765;50.954;5.322;2022-08-21T04:28:15;12.30;99.90
21216;DHT22;10765;50.954;5.322;2022-08-21T04:30:43;12.40;1.00
21216;DHT22;10765;50.954;5.322;2022-08-21T04:33:11;12.40;1.00
21216;DHT22;10765;50.954;5.322;2022-08-21T04:35:38;12.40;99.90
21216;DHT22;10765;50.954;5.322;2022-08-21T04:38:05;12.30;1.00
21216;DHT22;10765;50.954;5.322;2022-08-21T04:40:31;12.30;15.10
21216;DHT22;10765;50.954;5.322;2022-08-21T04:43:02;12.30;99.90
21216;DHT22;10765;50.954;5.322;2022-08-21T04:45:31;12.30;99.90
21216;DHT22;10765;50.954;5.322;2022-08-21T04:48:02;12.40;1.00
21216;DHT22;10765;50.954;5.322;2022-08-21T04:50:34;12.40;99.90
21216;DHT22;10765;50.954;5.322;2022-08-21T04:53:04;12.40;99.90
21216;DHT22;10765;50.954;5.322;2022-08-21T04:55:31;12.40;99.90
21216;DHT22;10765;50.954;5.322;2022-08-21T04:57:59;12.60;1.00
21216;DHT22;10765;50.954;5.322;2022-08-21T05:00:26;12.80;1.00
21216;DHT22;10765;50.954;5.322;2022-08-21T05:02:54;13.20;71.30
21216;DHT22;10765;50.954;5.322;2022-08-21T05:05:27;13.60;1.00
21216;DHT22;10765;50.954;5.322;2022-08-21T05:07:55;13.90;99.90
21216;DHT22;10765;50.954;5.322;2022-08-21T05:10:23;14.30;79.10
21216;DHT22;10765;50.954;5.322;2022-08-21T05:12:51;14.60;99.90
21216;DHT22;10765;50.954;5.322;2022-08-21T05:15:18;15.00;1.00
21216;DHT22;10765;50.954;5.322;2022-08-21T05:17:45;15.40;99.90
21216;DHT22;10765;50.954;5.322;2022-08-21T05:20:13;15.70;1.00
21216;DHT22;10765;50.954;5.322;2022-08-21T05:22:41;16.00;1.00
21216;DHT22;10765;50.954;5.322;2022-08-21T05:25:10;16.40;99.90
21216;DHT22;10765;50.954;5.322;2022-08-21T05:27:37;16.80;99.90
21216;DHT22;10765;50.954;5.322;2022-08-21T05:30:06;17.00;99.90
21216;DHT22;10765;50.954;5.322;2022-08-21T05:32:34;17.60;57.00
21216;DHT22;10765;50.954;5.322;2022-08-21T05:35:01;17.90;1.00
21216;DHT22;10765;50.954;5.322;2022-08-21T05:37:28;18.30;1.00
21216;DHT22;10765;50.954;5.322;2022-08-21T05:39:56;18.50;1.00
21216;DHT22;10765;50.954;5.322;2022-08-21T05:42:23;18.40;1.00
21216;DHT22;10765;50.954;5.322;2022-08-21T05:44:50;18.90;1.00
21216;DHT22;10765;50.954;5.322;2022-08-21T05:47:17;19.30;1.00
21216;DHT22;10765;50.954;5.322;2022-08-21T05:49:43;19.90;1.00
21216;DHT22;10765;50.954;5.322;2022-08-21T05:52:10;20.10;1.00
21216;DHT22;10765;50.954;5.322;2022-08-21T05:54:37;20.30;99.90
21216;DHT22;10765;50.954;5.322;2022-08-21T05:57:06;20.60;99.90
21216;DHT22;10765;50.954;5.322;2022-08-21T05:59:33;21.00;99.90
21216;DHT22;10765;50.954;5.322;2022-08-21T06:02:02;21.00;99.90
21216;DHT22;10765;50.954;5.322;2022-08-21T06:04:28;21.20;99.90
21216;DHT22;10765;50.954;5.322;2022-08-21T06:06:55;22.00;99.90
21216;DHT22;10765;50.954;5.322;2022-08-21T06:09:22;21.90;99.90
21216;DHT22;10765;50.954;5.322;2022-08-21T06:11:49;22.40;99.90
21216;DHT22;10765;50.954;5.322;2022-08-21T06:14:17;23.00;99.90
21216;DHT22;10765;50.954;5.322;2022-08-21T06:16:44;23.30;99.90
21216;DHT22;10765;50.954;5.322;2022-08-21T06:19:11;23.30;99.90
21216;DHT22;10765;50.954;5.322;2022-08-21T06:21:38;23.30;99.90
21216;DHT22;10765;50.954;5.322;2022-08-21T06:24:06;23.30;99.90
21216;DHT22;10765;50.954;5.322;2022-08-21T06:26:33;23.30;99.90
21216;DHT22;10765;50.954;5.322;2022-08-21T06:29:00;23.30;99.90
21216;DHT22;10765;50.954;5.322;2022-08-21T06:31:29;23.40;99.90
21216;DHT22;10765;50.954;5.322;2022-08-21T06:33:56;23.90;99.90
21216;DHT22;10765;50.954;5.322;2022-08-21T06:36:23;24.20;99.90
21216;DHT22;10765;50.954;5.322;2022-08-21T06:38:50;24.30;99.90
21216;DHT22;10765;50.954;5.322;2022-08-21T06:41:18;24.40;99.90
21216;DHT22;10765;50.954;5.322;2022-08-21T06:43:45;24.80;99.90
21216;DHT22;10765;50.954;5.322;2022-08-21T06:46:12;25.30;99.90
21216;DHT22;10765;50.954;5.322;2022-08-21T06:48:40;25.70;99.90
21216;DHT22;10765;50.954;5.322;2022-08-21T06:51:07;26.00;99.90
21216;DHT22;10765;50.954;5.322;2022-08-21T06:53:34;26.80;99.90
21216;DHT22;10765;50.954;5.322;2022-08-21T06:56:01;27.10;99.90
21216;DHT22;10765;50.954;5.322;2022-08-21T06:58:28;26.80;99.90
21216;DHT22;10765;50.954;5.322;2022-08-21T07:00:56;27.30;99.90
21216;DHT22;10765;50.954;5.322;2022-08-21T07:03:25;27.60;99.90
21216;DHT22;10765;50.954;5.322;2022-08-21T07:05:54;27.80;99.90
21216;DHT22;10765;50.954;5.322;2022-08-21T07:08:22;28.70;99.90
21216;DHT22;10765;50.954;5.322;2022-08-21T07:10:49;28.70;99.90
21216;DHT22;10765;50.954;5.322;2022-08-21T07:13:17;28.90;99.90
21216;DHT22;10765;50.954;5.322;2022-08-21T07:15:44;28.80;99.90
21216;DHT22;10765;50.954;5.322;2022-08-21T07:18:11;28.70;99.90
21216;DHT22;10765;50.954;5.322;2022-08-21T07:20:39;29.00;99.90
21216;DHT22;10765;50.954;5.322;2022-08-21T07:23:11;29.70;99.90
21216;DHT22;10765;50.954;5.322;2022-08-21T07:25:39;30.10;99.90
21216;DHT22;10765;50.954;5.322;2022-08-21T07:28:06;29.40;99.90
21216;DHT22;10765;50.954;5.322;2022-08-21T07:30:33;29.00;99.90
21216;DHT22;10765;50.954;5.322;2022-08-21T07:33:00;28.70;99.90
21216;DHT22;10765;50.954;5.322;2022-08-21T07:35:27;28.60;99.90
21216;DHT22;10765;50.954;5.322;2022-08-21T07:37:57;28.70;99.90
21216;DHT22;10765;50.954;5.322;2022-08-21T07:40:25;29.10;99.90
21216;DHT22;10765;50.954;5.322;2022-08-21T07:42:52;28.40;99.90
21216;DHT22;10765;50.954;5.322;2022-08-21T07:45:20;26.90;99.90
21216;DHT22;10765;50.954;5.322;2022-08-21T07:47:48;26.70;99.90
21216;DHT22;10765;50.954;5.322;2022-08-21T07:50:15;26.50;99.90
21216;DHT22;10765;50.954;5.322;2022-08-21T07:52:42;26.80;99.90
21216;DHT22;10765;50.954;5.322;2022-08-21T07:55:14;27.60;99.90
21216;DHT22;10765;50.954;5.322;2022-08-21T07:57:43;28.10;99.90
21216;DHT22;10765;50.954;5.322;2022-08-21T08:00:14;28.50;99.90
21216;DHT22;10765;50.954;5.322;2022-08-21T08:02:45;28.70;99.90
21216;DHT22;10765;50.954;5.322;2022-08-21T08:05:15;28.40;99.90
21216;DHT22;10765;50.954;5.322;2022-08-21T08:07:43;28.10;99.90
21216;DHT22;10765;50.954;5.322;2022-08-21T08:10:10;27.80;99.90
21216;DHT22;10765;50.954;5.322;2022-08-21T08:12:39;28.80;99.90
21216;DHT22;10765;50.954;5.322;2022-08-21T08:15:13;30.20;99.90
21216;DHT22;10765;50.954;5.322;2022-08-21T08:17:41;30.90;99.90
21216;DHT22;10765;50.954;5.322;2022-08-21T08:20:09;29.80;99.90
21216;DHT22;10765;50.954;5.322;2022-08-21T08:22:38;29.00;99.90
21216;DHT22;10765;50.954;5.322;2022-08-21T08:25:08;29.50;99.90
21216;DHT22;10765;50.954;5.322;2022-08-21T08:27:36;29.60;99.90
21216;DHT22;10765;50.954;5.322;2022-08-21T08:30:03;29.20;99.90
21216;DHT22;10765;50.954;5.322;2022-08-21T08:32:32;28.30;99.90
21216;DHT22;10765;50.954;5.322;2022-08-21T08:34:59;28.70;99.90
21216;DHT22;10765;50.954;5.322;2022-08-21T08:37:26;28.30;99.90
21216;DHT22;10765;50.954;5.322;2022-08-21T08:39:53;28.50;99.90
21216;DHT22;10765;50.954;5.322;2022-08-21T08:42:23;29.70;99.90
21216;DHT22;10765;50.954;5.322;2022-08-21T08:44:57;31.20;99.90
21216;DHT22;10765;50.954;5.322;2022-08-21T08:47:25;31.50;99.90
21216;DHT22;10765;50.954;5.322;2022-08-21T08:50:00;30.60;99.90
21216;DHT22;10765;50.954;5.322;2022-08-21T08:52:29;29.60;99.90
21216;DHT22;10765;50.954;5.322;2022-08-21T08:55:03;30.00;99.90
21216;DHT22;10765;50.954;5.322;2022-08-21T08:57:31;30.10;99.90
21216;DHT22;10765;50.954;5.322;2022-08-21T09:00:01;30.80;99.90
21216;DHT22;10765;50.954;5.322;2022-08-21T09:02:29;30.70;99.90
21216;DHT22;10765;50.954;5.322;2022-08-21T09:05:00;30.30;99.90
21216;DHT22;10765;50.954;5.322;2022-08-21T09:07:35;30.50;99.90
21216;DHT22;10765;50.954;5.322;2022-08-21T09:10:13;31.30;99.90
21216;DHT22;10765;50.954;5.322;2022-08-21T09:12:52;31.10;99.90
21216;DHT22;10765;50.954;5.322;2022-08-21T09:15:28;31.00;99.90
21216;DHT22;10765;50.954;5.322;2022-08-21T09:18:07;30.80;99.90
21216;DHT22;10765;50.954;5.322;2022-08-21T09:20:43;31.50;99.90
21216;DHT22;10765;50.954;5.322;2022-08-21T09:23:22;31.80;99.90
21216;DHT22;10765;50.954;5.322;2022-08-21T09:25:58;31.00;99.90
21216;DHT22;10765;50.954;5.322;2022-08-21T09:28:26;31.80;99.90
21216;DHT22;10765;50.954;5.322;2022-08-21T09:30:55;32.60;99.90
21216;DHT22;10765;50.954;5.322;2022-08-21T09:33:23;32.90;99.90
21216;DHT22;10765;50.954;5.322;2022-08-21T09:35:53;32.40;99.90
21216;DHT22;10765;50.954;5.322;2022-08-21T09:38:29;32.20;99.90
21216;DHT22;10765;50.954;5.322;2022-08-21T09:41:00;31.70;99.90
21216;DHT22;10765;50.954;5.322;2022-08-21T09:43:28;32.40;99.90
21216;DHT22;10765;50.954;5.322;2022-08-21T09:46:08;32.50;99.90
21216;DHT22;10765;50.954;5.322;2022-08-21T09:48:44;32.40;99.90
21216;DHT22;10765;50.954;5.322;2022-08-21T09:51:18;33.00;99.90
21216;DHT22;10765;50.954;5.322;2022-08-21T09:53:48;33.80;99.90
21216;DHT22;10765;50.954;5.322;2022-08-21T09:56:27;35.00;99.90
21216;DHT22;10765;50.954;5.322;2022-08-21T09:59:18;35.30;99.90
21216;DHT22;10765;50.954;5.322;2022-08-21T10:01:47;35.70;99.90
21216;DHT22;10765;50.954;5.322;2022-08-21T10:04:14;35.20;99.90
21216;DHT22;10765;50.954;5.322;2022-08-21T10:06:43;37.00;99.90
21216;DHT22;10765;50.954;5.322;2022-08-21T10:09:11;38.10;99.90
21216;DHT22;10765;50.954;5.322;2022-08-21T10:11:39;37.90;99.90
21216;DHT22;10765;50.954;5.322;2022-08-21T10:14:13;38.10;99.90
21216;DHT22;10765;50.954;5.322;2022-08-21T10:16:51;36.90;99.90
21216;DHT22;10765;50.954;5.322;2022-08-21T10:19:26;36.50;99.90
21216;DHT22;10765;50.954;5.322;2022-08-21T10:22:05;37.20;99.90
21216;DHT22;10765;50.954;5.322;2022-08-21T10:24:42;36.50;99.90
21216;DHT22;10765;50.954;5.322;2022-08-21T10:27:22;34.60;99.90
21216;DHT22;10765;50.954;5.322;2022-08-21T10:29:57;32.60;99.90
21216;DHT22;10765;50.954;5.322;2022-08-21T10:35:23;32.50;99.90
21216;DHT22;10765;50.954;5.322;2022-08-21T10:38:07;33.50;99.90
21216;DHT22;10765;50.954;5.322;2022-08-21T10:40:42;32.70;99.90
21216;DHT22;10765;50.954;5.322;2022-08-21T10:43:20;32.60;99.90
21216;DHT22;10765;50.954;5.322;2022-08-21T10:45:57;33.80;99.90
21216;DHT22;10765;50.954;5.322;2022-08-21T10:48:29;33.10;99.90
21216;DHT22;10765;50.954;5.322;2022-08-21T10:51:04;31.60;99.90
21216;DHT22;10765;50.954;5.322;2022-08-21T10:53:44;30.10;99.90
21216;DHT22;10765;50.954;5.322;2022-08-21T10:56:16;29.30;99.90
21216;DHT22;10765;50.954;5.322;2022-08-21T10:58:49;28.40;99.90
21216;DHT22;10765;50.954;5.322;2022-08-21T11:01:22;30.10;99.90
21216;DHT22;10765;50.954;5.322;2022-08-21T11:04:01;33.00;99.90
21216;DHT22;10765;50.954;5.322;2022-08-21T11:06:32;35.40;99.90
21216;DHT22;10765;50.954;5.322;2022-08-21T11:09:12;37.10;99.90
21216;DHT22;10765;50.954;5.322;2022-08-21T11:11:42;37.50;99.90
21216;DHT22;10765;50.954;5.322;2022-08-21T11:14:17;38.50;99.90
21216;DHT22;10765;50.954;5.322;2022-08-21T11:16:48;39.60;99.90
21216;DHT22;10765;50.954;5.322;2022-08-21T11:19:19;38.50;99.90
21216;DHT22;10765;50.954;5.322;2022-08-21T11:21:52;37.50;99.90
21216;DHT22;10765;50.954;5.322;2022-08-21T11:24:30;38.10;99.90
21216;DHT22;10765;50.954;5.322;2022-08-21T11:27:03;38.30;99.90
21216;DHT22;10765;50.954;5.322;2022-08-21T11:29:34;38.00;99.90
21216;DHT22;10765;50.954;5.322;2022-08-21T11:32:27;37.70;99.90
21216;DHT22;10765;50.954;5.322;2022-08-21T11:35:03;38.80;99.90
21216;DHT22;10765;50.954;5.322;2022-08-21T11:37:49;37.10;99.90
21216;DHT22;10765;50.954;5.322;2022-08-21T11:40:34;35.10;99.90
21216;DHT22;10765;50.954;5.322;2022-08-21T11:43:11;34.50;99.90
21216;DHT22;10765;50.954;5.322;2022-08-21T11:45:45;36.10;99.90
21216;DHT22;10765;50.954;5.322;2022-08-21T11:48:21;36.60;99.90
21216;DHT22;10765;50.954;5.322;2022-08-21T11:50:52;38.40;99.90
21216;DHT22;10765;50.954;5.322;2022-08-21T11:53:23;40.20;99.90
21216;DHT22;10765;50.954;5.322;2022-08-21T11:55:56;36.10;99.90
21216;DHT22;10765;50.954;5.322;2022-08-21T11:58:30;34.00;99.90
21216;DHT22;10765;50.954;5.322;2022-08-21T12:01:04;31.40;99.90
21216;DHT22;10765;50.954;5.322;2022-08-21T12:03:34;31.40;99.90
21216;DHT22;10765;50.954;5.322;2022-08-21T12:06:04;32.10;99.90
21216;DHT22;10765;50.954;5.322;2022-08-21T12:08:33;34.50;99.90
21216;DHT22;10765;50.954;5.322;2022-08-21T12:11:05;33.70;99.90
21216;DHT22;10765;50.954;5.322;2022-08-21T12:13:35;33.00;99.90
21216;DHT22;10765;50.954;5.322;2022-08-21T12:16:07;35.80;99.90
21216;DHT22;10765;50.954;5.322;2022-08-21T12:18:34;35.60;99.90
21216;DHT22;10765;50.954;5.322;2022-08-21T12:21:16;37.20;99.90
21216;DHT22;10765;50.954;5.322;2022-08-21T12:23:47;38.10;99.90
21216;DHT22;10765;50.954;5.322;2022-08-21T12:26:26;36.40;99.90
21216;DHT22;10765;50.954;5.322;2022-08-21T12:29:11;37.40;99.90
21216;DHT22;10765;50.954;5.322;2022-08-21T12:31:52;36.30;99.90
21216;DHT22;10765;50.954;5.322;2022-08-21T12:34:20;33.60;99.90
21216;DHT22;10765;50.954;5.322;2022-08-21T12:36:53;36.50;99.90
21216;DHT22;10765;50.954;5.322;2022-08-21T12:39:24;38.30;99.90
21216;DHT22;10765;50.954;5.322;2022-08-21T12:41:57;39.10;99.90
21216;DHT22;10765;50.954;5.322;2022-08-21T12:44:31;39.30;99.90
21216;DHT22;10765;50.954;5.322;2022-08-21T12:47:04;34.60;99.90
21216;DHT22;10765;50.954;5.322;2022-08-21T12:49:35;31.60;99.90
21216;DHT22;10765;50.954;5.322;2022-08-21T12:52:09;30.10;99.90
21216;DHT22;10765;50.954;5.322;2022-08-21T12:54:40;30.30;99.90
21216;DHT22;10765;50.954;5.322;2022-08-21T12:57:18;30.10;99.90
21216;DHT22;10765;50.954;5.322;2022-08-21T12:59:45;34.20;99.90
21216;DHT22;10765;50.954;5.322;2022-08-21T13:02:17;37.40;99.90
21216;DHT22;10765;50.954;5.322;2022-08-21T13:04:46;39.20;99.90
21216;DHT22;10765;50.954;5.322;2022-08-21T13:07:16;39.50;99.90
21216;DHT22;10765;50.954;5.322;2022-08-21T13:09:48;38.40;99.90
21216;DHT22;10765;50.954;5.322;2022-08-21T13:12:18;37.20;99.90
21216;DHT22;10765;50.954;5.322;2022-08-21T13:14:48;37.20;99.90
21216;DHT22;10765;50.954;5.322;2022-08-21T13:17:18;37.20;99.90
21216;DHT22;10765;50.954;5.322;2022-08-21T13:19:53;37.80;99.90
21216;DHT22;10765;50.954;5.322;2022-08-21T13:22:20;36.80;99.90
21216;DHT22;10765;50.954;5.322;2022-08-21T13:24:47;37.10;99.90
21216;DHT22;10765;50.954;5.322;2022-08-21T13:27:22;37.00;99.90
21216;DHT22;10765;50.954;5.322;2022-08-21T13:30:00;36.00;99.90
21216;DHT22;10765;50.954;5.322;2022-08-21T13:32:29;35.90;99.90
21216;DHT22;10765;50.954;5.322;2022-08-21T13:34:58;37.00;99.90
21216;DHT22;10765;50.954;5.322;2022-08-21T13:37:26;38.00;99.90
21216;DHT22;10765;50.954;5.322;2022-08-21T13:39:54;35.70;99.90
21216;DHT22;10765;50.954;5.322;2022-08-21T13:42:22;34.50;99.90
21216;DHT22;10765;50.954;5.322;2022-08-21T13:44:52;35.40;99.90
21216;DHT22;10765;50.954;5.322;2022-08-21T13:47:20;35.10;99.90
21216;DHT22;10765;50.954;5.322;2022-08-21T13:49:49;33.00;99.90
21216;DHT22;10765;50.954;5.322;2022-08-21T13:52:21;30.70;99.90
21216;DHT22;10765;50.954;5.322;2022-08-21T13:54:53;29.40;99.90
21216;DHT22;10765;50.954;5.322;2022-08-21T13:57:27;29.00;99.90
21216;DHT22;10765;50.954;5.322;2022-08-21T14:00:14;31.30;99.90
21216;DHT22;10765;50.954;5.322;2022-08-21T14:02:44;31.70;99.90
21216;DHT22;10765;50.954;5.322;2022-08-21T14:05:16;29.50;99.90
21216;DHT22;10765;50.954;5.322;2022-08-21T14:07:46;28.50;99.90
21216;DHT22;10765;50.954;5.322;2022-08-21T14:10:18;28.10;99.90
21216;DHT22;10765;50.954;5.322;2022-08-21T14:12:50;28.10;99.90
21216;DHT22;10765;50.954;5.322;2022-08-21T14:15:22;27.70;99.90
21216;DHT22;10765;50.954;5.322;2022-08-21T14:17:49;27.50;99.90
21216;DHT22;10765;50.954;5.322;2022-08-21T14:20:29;27.50;99.90
21216;DHT22;10765;50.954;5.322;2022-08-21T14:22:56;27.80;99.90
21216;DHT22;10765;50.954;5.322;2022-08-21T14:25:36;28.50;99.90
21216;DHT22;10765;50.954;5.322;2022-08-21T14:28:19;29.00;99.90
21216;DHT22;10765;50.954;5.322;2022-08-21T14:30:49;28.70;99.90
21216;DHT22;10765;50.954;5.322;2022-08-21T14:33:22;28.60;99.90
21216;DHT22;10765;50.954;5.322;2022-08-21T14:35:49;28.10;99.90
21216;DHT22;10765;50.954;5.322;2022-08-21T14:38:20;28.10;99.90
21216;DHT22;10765;50.954;5.322;2022-08-21T14:40:49;28.00;99.90
21216;DHT22;10765;50.954;5.322;2022-08-21T14:43:18;28.20;99.90
21216;DHT22;10765;50.954;5.322;2022-08-21T14:45:46;27.60;99.90
21216;DHT22;10765;50.954;5.322;2022-08-21T14:48:13;27.70;99.90
21216;DHT22;10765;50.954;5.322;2022-08-21T14:50:40;27.70;99.90
21216;DHT22;10765;50.954;5.322;2022-08-21T14:53:07;27.70;99.90
21216;DHT22;10765;50.954;5.322;2022-08-21T14:55:34;27.50;99.90
21216;DHT22;10765;50.954;5.322;2022-08-21T14:58:23;27.40;99.90
21216;DHT22;10765;50.954;5.322;2022-08-21T15:00:51;27.40;99.90
21216;DHT22;10765;50.954;5.322;2022-08-21T15:03:19;27.40;99.90
21216;DHT22;10765;50.954;5.322;2022-08-21T15:05:47;27.30;99.90
21216;DHT22;10765;50.954;5.322;2022-08-21T15:08:14;27.40;99.90
21216;DHT22;10765;50.954;5.322;2022-08-21T15:10:41;27.10;99.90
21216;DHT22;10765;50.954;5.322;2022-08-21T15:13:08;26.80;99.90
21216;DHT22;10765;50.954;5.322;2022-08-21T15:15:40;27.00;99.90
21216;DHT22;10765;50.954;5.322;2022-08-21T15:18:08;26.60;99.90
21216;DHT22;10765;50.954;5.322;2022-08-21T15:20:35;26.20;99.90
21216;DHT22;10765;50.954;5.322;2022-08-21T15:23:03;26.10;99.90
21216;DHT22;10765;50.954;5.322;2022-08-21T15:25:30;26.30;99.90
21216;DHT22;10765;50.954;5.322;2022-08-21T15:28:00;26.40;99.90
21216;DHT22;10765;50.954;5.322;2022-08-21T15:30:29;26.20;99.90
21216;DHT22;10765;50.954;5.322;2022-08-21T15:32:58;26.40;99.90
21216;DHT22;10765;50.954;5.322;2022-08-21T15:35:25;26.20;99.90
21216;DHT22;10765;50.954;5.322;2022-08-21T15:37:52;26.30;99.90
21216;DHT22;10765;50.954;5.322;2022-08-21T15:40:19;26.20;99.90
21216;DHT22;10765;50.954;5.322;2022-08-21T15:42:46;26.30;1.00
21216;DHT22;10765;50.954;5.322;2022-08-21T15:45:13;26.20;1.00
21216;DHT22;10765;50.954;5.322;2022-08-21T15:47:44;26.40;99.90
21216;DHT22;10765;50.954;5.322;2022-08-21T15:50:13;26.60;99.90
21216;DHT22;10765;50.954;5.322;2022-08-21T15:52:40;26.70;99.90
21216;DHT22;10765;50.954;5.322;2022-08-21T15:55:08;27.10;99.90